createdAt,value
2023-01-12T00:00:30.027Z,76.27
2023-01-12T00:01:32.615Z,77.03
2023-01-12T00:02:35.664Z,76.37
2023-01-12T00:03:37.419Z,76.42
2023-01-12T00:04:39.402Z,76.44
2023-01-12T00:05:41.227Z,76.25
2023-01-12T00:06:43.733Z,76.60
2023-01-12T00:07:45.668Z,76.27
2023-01-12T00:08:49.310Z,75.34
2023-01-12T00:09:51.247Z,74.89
2023-01-12T00:10:56.568Z,74.80
2023-01-12T00:11:58.633Z,74.66
2023-01-12T00:13:01.000Z,74.79
2023-01-12T00:14:03.203Z,74.03
2023-01-12T00:15:05.510Z,73.72
2023-01-12T00:16:26.311Z,73.30
2023-01-12T00:17:28.318Z,72.58
2023-01-12T00:18:32.513Z,71.89
2023-01-12T00:19:36.996Z,71.75
2023-01-12T00:20:38.842Z,71.66
2023-01-12T00:22:01.887Z,71.60
2023-01-12T00:23:03.655Z,72.05
2023-01-12T00:24:09.327Z,72.28
2023-01-12T00:25:11.311Z,72.53
2023-01-12T00:26:13.170Z,72.17
2023-01-12T00:27:19.219Z,72.42
2023-01-12T00:28:21.132Z,72.79
2023-01-12T00:29:24.530Z,72.41
2023-01-12T00:30:26.345Z,72.36
2023-01-12T00:31:28.389Z,72.85
2023-01-12T00:32:30.210Z,72.81
2023-01-12T00:33:32.497Z,72.79
2023-01-12T00:34:34.467Z,73.15
2023-01-12T00:35:36.259Z,72.85
2023-01-12T00:36:38.723Z,73.05
2023-01-12T00:37:40.698Z,73.08
2023-01-12T00:38:43.576Z,73.05
2023-01-12T00:40:00.969Z,73.17
2023-01-12T00:41:07.058Z,72.96
2023-01-12T00:42:27.593Z,73.26
2023-01-12T00:43:48.410Z,72.76
2023-01-12T00:45:08.413Z,72.24
2023-01-12T00:46:09.964Z,73.09
2023-01-12T00:47:13.370Z,72.75
2023-01-12T00:48:15.542Z,73.12
2023-01-12T00:49:17.614Z,72.96
2023-01-12T00:50:20.206Z,72.30
2023-01-12T00:51:22.140Z,72.47
2023-01-12T00:52:30.847Z,72.33
2023-01-12T00:53:33.688Z,72.29
2023-01-12T00:54:36.679Z,72.55
2023-01-12T00:55:38.513Z,72.84
2023-01-12T00:56:41.535Z,72.58
2023-01-12T00:57:44.603Z,73.10
2023-01-12T00:58:47.446Z,73.26
2023-01-12T00:59:49.596Z,73.17
2023-01-12T01:00:51.602Z,72.68
2023-01-12T01:01:53.636Z,72.74
2023-01-12T01:02:55.295Z,72.88
2023-01-12T01:03:56.881Z,72.60
2023-01-12T01:04:58.405Z,73.24
2023-01-12T01:06:07.423Z,72.46
2023-01-12T01:07:08.881Z,72.95
2023-01-12T01:08:10.429Z,73.09
2023-01-12T01:09:12.315Z,73.19
2023-01-12T01:10:16.087Z,72.98
2023-01-12T01:11:18.587Z,73.13
2023-01-12T01:12:20.572Z,73.23
2023-01-12T01:13:22.687Z,73.09
2023-01-12T01:14:25.204Z,72.90
2023-01-12T01:15:26.860Z,72.91
2023-01-12T01:16:29.827Z,73.11
2023-01-12T01:17:31.623Z,73.10
2023-01-12T01:18:34.414Z,72.81
2023-01-12T01:19:36.737Z,72.85
2023-01-12T01:20:38.906Z,72.53
2023-01-12T01:21:40.427Z,72.65
2023-01-12T01:22:42.125Z,72.64
2023-01-12T01:23:43.827Z,72.95
2023-01-12T01:24:45.288Z,72.06
2023-01-12T01:25:47.040Z,71.64
2023-01-12T01:26:50.310Z,71.79
2023-01-12T01:27:52.041Z,71.65
2023-01-12T01:28:53.891Z,71.95
2023-01-12T01:29:55.438Z,72.16
2023-01-12T01:31:04.637Z,71.72
2023-01-12T01:32:07.022Z,71.66
2023-01-12T01:33:08.625Z,71.32
2023-01-12T01:34:10.182Z,71.74
2023-01-12T01:35:11.691Z,71.28
2023-01-12T01:36:14.087Z,71.65
2023-01-12T01:37:15.785Z,71.37
2023-01-12T01:38:17.553Z,71.70
2023-01-12T01:39:19.013Z,71.42
2023-01-12T01:40:20.524Z,71.34
2023-01-12T01:41:25.744Z,71.24
2023-01-12T01:42:30.093Z,71.78
2023-01-12T01:43:55.065Z,71.10
2023-01-12T01:45:01.334Z,71.32
2023-01-12T01:46:12.849Z,71.62
2023-01-12T01:47:32.828Z,71.62
2023-01-12T01:48:39.124Z,71.52
2023-01-12T01:49:44.948Z,71.79
2023-01-12T01:50:57.558Z,72.05
2023-01-12T01:52:07.572Z,71.96
2023-01-12T01:53:19.963Z,72.20
2023-01-12T01:54:23.428Z,72.00
2023-01-12T01:55:52.948Z,72.00
2023-01-12T01:56:57.361Z,71.75
2023-01-12T01:58:07.635Z,72.01
2023-01-12T01:59:23.804Z,71.99
2023-01-12T02:00:26.309Z,72.17
2023-01-12T02:01:28.521Z,72.29
2023-01-12T02:02:31.342Z,72.30
2023-01-12T02:03:36.869Z,72.22
2023-01-12T02:04:39.853Z,72.34
2023-01-12T02:05:45.618Z,71.90
2023-01-12T02:06:49.013Z,71.94
2023-01-12T02:07:52.273Z,72.07
2023-01-12T02:08:58.386Z,72.26
2023-01-12T02:10:00.146Z,72.55
2023-01-12T02:11:03.331Z,72.49
2023-01-12T02:12:25.622Z,71.89
2023-01-12T02:13:49.415Z,71.72
2023-01-12T02:15:10.978Z,72.18
2023-01-12T02:16:37.257Z,71.86
2023-01-12T02:18:10.721Z,71.89
2023-01-12T02:19:35.349Z,71.73
2023-01-12T02:20:49.415Z,72.00
2023-01-12T02:21:53.995Z,72.30
2023-01-12T02:23:20.622Z,72.01
2023-01-12T02:25:06.749Z,72.13
2023-01-12T02:26:11.788Z,71.89
2023-01-12T02:27:32.539Z,71.99
2023-01-12T02:29:11.436Z,72.00
2023-01-12T02:30:47.365Z,72.02
2023-01-12T02:31:54.866Z,72.08
2023-01-12T02:33:08.787Z,72.16
2023-01-12T02:34:33.611Z,72.17
2023-01-12T02:35:50.468Z,72.34
2023-01-12T02:36:59.775Z,72.15
2023-01-12T02:38:36.156Z,72.35
2023-01-12T02:39:51.017Z,72.52
2023-01-12T02:41:04.086Z,72.55
2023-01-12T02:42:42.668Z,72.23
2023-01-12T02:43:45.324Z,71.84
2023-01-12T02:45:13.857Z,71.83
2023-01-12T02:46:32.124Z,71.75
2023-01-12T02:47:52.053Z,71.46
2023-01-12T02:49:02.930Z,71.41
2023-01-12T02:50:11.584Z,71.37
2023-01-12T02:51:32.370Z,71.92
2023-01-12T02:52:34.864Z,71.81
2023-01-12T02:54:01.454Z,71.92
2023-01-12T02:55:06.277Z,72.14
2023-01-12T02:56:08.391Z,72.07
2023-01-12T02:57:11.193Z,71.87
2023-01-12T02:58:17.742Z,71.27
2023-01-12T02:59:27.105Z,71.62
2023-01-12T03:00:30.621Z,71.90
2023-01-12T03:01:33.788Z,72.03
2023-01-12T03:02:38.533Z,71.41
2023-01-12T03:03:41.793Z,71.52
2023-01-12T03:04:43.798Z,71.50
2023-01-12T03:05:45.790Z,71.64
2023-01-12T03:06:56.575Z,72.12
2023-01-12T03:08:04.821Z,72.03
2023-01-12T03:09:06.715Z,72.28
2023-01-12T03:10:12.080Z,71.83
2023-01-12T03:11:18.325Z,71.89
2023-01-12T03:12:41.464Z,71.83
2023-01-12T03:13:55.033Z,72.46
2023-01-12T03:15:02.354Z,73.18
2023-01-12T03:16:07.592Z,73.39
2023-01-12T03:17:17.172Z,73.37
2023-01-12T03:18:32.168Z,73.87
2023-01-12T03:19:36.175Z,74.45
2023-01-12T03:20:45.862Z,74.86
2023-01-12T03:22:07.631Z,75.73
2023-01-12T03:23:16.941Z,75.06
2023-01-12T03:24:30.854Z,76.14
2023-01-12T03:25:35.779Z,76.49
2023-01-12T03:26:47.376Z,77.41
2023-01-12T03:27:56.333Z,77.33
2023-01-12T03:29:13.735Z,77.93
2023-01-12T03:30:38.812Z,78.29
2023-01-12T03:31:42.284Z,78.31
2023-01-12T03:32:44.401Z,78.51
2023-01-12T03:33:46.590Z,78.17
2023-01-12T03:34:48.869Z,77.97
2023-01-12T03:36:15.963Z,78.61
2023-01-12T03:37:32.465Z,79.31
2023-01-12T03:38:46.159Z,78.95
2023-01-12T03:40:07.413Z,79.05
2023-01-12T03:41:31.209Z,79.73
2023-01-12T03:43:26.890Z,79.71
2023-01-12T03:44:58.456Z,80.13
2023-01-12T03:46:12.466Z,80.24
2023-01-12T03:47:26.035Z,79.93
2023-01-12T03:48:46.483Z,80.47
2023-01-12T03:49:55.926Z,80.32
2023-01-12T03:51:03.628Z,79.74
2023-01-12T03:52:09.118Z,80.52
2023-01-12T03:53:15.850Z,80.99
2023-01-12T03:54:20.453Z,80.85
2023-01-12T03:55:24.961Z,81.37
2023-01-12T03:56:34.583Z,81.15
2023-01-12T03:57:39.092Z,81.08
2023-01-12T03:58:41.819Z,81.55
2023-01-12T03:59:44.106Z,81.66
2023-01-12T04:00:45.648Z,81.58
2023-01-12T04:01:49.059Z,81.24
2023-01-12T04:02:50.696Z,81.51
2023-01-12T04:03:52.517Z,81.71
2023-01-12T04:04:54.679Z,81.56
2023-01-12T04:05:57.519Z,81.82
2023-01-12T04:07:01.668Z,81.56
2023-01-12T04:08:03.871Z,80.72
2023-01-12T04:09:06.823Z,81.01
2023-01-12T04:10:09.134Z,81.31
2023-01-12T04:11:30.013Z,80.61
2023-01-12T04:12:33.042Z,80.12
2023-01-12T04:13:34.848Z,80.45
2023-01-12T04:14:42.097Z,80.65
2023-01-12T04:15:43.846Z,80.35
2023-01-12T04:16:46.972Z,80.32
2023-01-12T04:17:48.707Z,79.72
2023-01-12T04:18:50.746Z,79.54
2023-01-12T04:19:52.508Z,79.44
2023-01-12T04:20:54.292Z,79.26
2023-01-12T04:22:14.410Z,79.34
2023-01-12T04:23:16.118Z,79.18
2023-01-12T04:24:17.835Z,78.88
2023-01-12T04:25:22.644Z,78.84
2023-01-12T04:26:24.580Z,79.26
2023-01-12T04:27:26.461Z,78.72
2023-01-12T04:28:29.681Z,78.82
2023-01-12T04:29:31.525Z,79.22
2023-01-12T04:30:34.796Z,78.34
2023-01-12T04:31:36.855Z,78.38
2023-01-12T04:32:39.946Z,78.59
2023-01-12T04:33:42.809Z,78.60
2023-01-12T04:34:46.051Z,78.72
2023-01-12T04:35:47.614Z,78.20
2023-01-12T04:36:49.186Z,77.78
2023-01-12T04:37:53.715Z,77.84
2023-01-12T04:38:56.542Z,77.70
2023-01-12T04:39:58.004Z,77.56
2023-01-12T04:41:00.907Z,77.26
2023-01-12T04:42:02.414Z,77.07
2023-01-12T04:43:11.861Z,77.51
2023-01-12T04:44:13.452Z,77.77
2023-01-12T04:45:15.166Z,77.26
2023-01-12T04:46:16.805Z,77.58
2023-01-12T04:47:18.301Z,77.88
2023-01-12T04:48:19.930Z,78.31
2023-01-12T04:49:21.777Z,77.91
2023-01-12T04:50:23.327Z,77.78
2023-01-12T04:51:25.740Z,77.90
2023-01-12T04:52:27.273Z,77.96
2023-01-12T04:53:29.633Z,77.72
2023-01-12T04:54:31.220Z,77.98
2023-01-12T04:55:33.799Z,77.80
2023-01-12T04:56:35.307Z,78.35
2023-01-12T04:57:36.857Z,78.64
2023-01-12T04:58:38.435Z,78.98
2023-01-12T04:59:40.100Z,78.73
2023-01-12T05:00:42.519Z,79.44
2023-01-12T05:01:44.139Z,79.10
2023-01-12T05:02:46.003Z,79.31
2023-01-12T05:03:48.083Z,79.09
2023-01-12T05:04:49.784Z,79.66
2023-01-12T05:05:51.377Z,80.05
2023-01-12T05:06:52.905Z,79.70
2023-01-12T05:08:13.356Z,80.21
2023-01-12T05:09:33.733Z,80.29
2023-01-12T05:10:35.772Z,80.10
2023-01-12T05:11:37.704Z,80.27
2023-01-12T05:12:39.497Z,80.75
2023-01-12T05:13:41.279Z,80.21
2023-01-12T05:14:42.701Z,80.64
2023-01-12T05:15:44.947Z,80.42
2023-01-12T05:16:48.703Z,80.62
2023-01-12T05:17:50.476Z,80.49
2023-01-12T05:18:53.711Z,80.19
2023-01-12T05:19:55.890Z,80.28
2023-01-12T05:20:57.587Z,80.29
2023-01-12T05:22:00.903Z,80.54
2023-01-12T05:23:02.704Z,80.03
2023-01-12T05:24:04.336Z,80.10
2023-01-12T05:25:06.520Z,80.21
2023-01-12T05:26:08.515Z,79.26
2023-01-12T05:27:10.099Z,80.12
2023-01-12T05:28:11.774Z,80.78
2023-01-12T05:29:13.818Z,81.01
2023-01-12T05:30:17.228Z,81.22
2023-01-12T05:31:20.217Z,81.15
2023-01-12T05:32:23.699Z,81.08
2023-01-12T05:33:25.832Z,80.96
2023-01-12T05:34:27.709Z,81.03
2023-01-12T05:35:29.667Z,81.01
2023-01-12T05:36:31.610Z,81.60
2023-01-12T05:37:34.256Z,81.55
2023-01-12T05:38:36.242Z,82.18
2023-01-12T05:39:38.039Z,82.53
2023-01-12T05:40:40.229Z,82.09
2023-01-12T05:42:02.143Z,82.24
2023-01-12T05:43:22.583Z,82.12
2023-01-12T05:44:24.393Z,82.36
2023-01-12T05:45:26.237Z,82.52
2023-01-12T05:46:30.927Z,82.63
2023-01-12T05:47:32.509Z,83.06
2023-01-12T05:48:35.320Z,82.82
2023-01-12T05:49:36.886Z,82.57
2023-01-12T05:50:38.587Z,82.72
2023-01-12T05:51:43.346Z,83.08
2023-01-12T05:52:45.247Z,82.98
2023-01-12T05:53:49.640Z,83.75
2023-01-12T05:54:51.291Z,83.56
2023-01-12T05:55:52.893Z,83.68
2023-01-12T05:56:57.296Z,83.81
2023-01-12T05:58:00.225Z,83.67
2023-01-12T05:59:04.304Z,83.54
2023-01-12T06:00:06.453Z,83.58
2023-01-12T06:01:33.870Z,83.77
2023-01-12T06:02:35.486Z,83.79
2023-01-12T06:03:37.957Z,84.29
2023-01-12T06:04:40.111Z,84.50
2023-01-12T06:05:41.702Z,84.74
2023-01-12T06:06:43.471Z,84.00
2023-01-12T06:07:45.186Z,84.15
2023-01-12T06:08:50.192Z,83.90
2023-01-12T06:09:53.112Z,83.17
2023-01-12T06:10:54.922Z,83.31
2023-01-12T06:12:15.505Z,83.53
2023-01-12T06:13:36.325Z,84.21
2023-01-12T06:14:38.297Z,84.64
2023-01-12T06:15:40.549Z,84.52
2023-01-12T06:16:44.094Z,84.94
2023-01-12T06:17:45.821Z,84.86
2023-01-12T06:18:47.664Z,84.33
2023-01-12T06:19:49.540Z,84.04
2023-01-12T06:20:51.313Z,84.41
2023-01-12T06:21:54.430Z,84.39
2023-01-12T06:22:56.146Z,84.37
2023-01-12T06:23:58.097Z,84.46
2023-01-12T06:24:59.869Z,84.75
2023-01-12T06:26:03.168Z,84.05
2023-01-12T06:27:05.044Z,83.79
2023-01-12T06:28:07.074Z,83.97
2023-01-12T06:29:08.868Z,84.37
2023-01-12T06:30:11.287Z,84.53
2023-01-12T06:31:13.858Z,84.72
2023-01-12T06:32:15.522Z,84.57
2023-01-12T06:33:16.989Z,84.58
2023-01-12T06:34:18.832Z,84.06
2023-01-12T06:35:20.404Z,84.28
2023-01-12T06:36:22.284Z,84.34
2023-01-12T06:37:26.873Z,84.64
2023-01-12T06:38:31.702Z,84.61
2023-01-12T06:39:34.544Z,84.35
2023-01-12T06:40:36.340Z,84.14
2023-01-12T06:41:56.727Z,84.40
2023-01-12T06:42:58.482Z,84.48
2023-01-12T06:44:00.146Z,84.13
2023-01-12T06:45:05.367Z,84.35
2023-01-12T06:46:07.042Z,84.03
2023-01-12T06:47:08.611Z,84.22
2023-01-12T06:48:10.319Z,84.35
2023-01-12T06:49:11.907Z,83.55
2023-01-12T06:50:13.551Z,83.88
2023-01-12T06:51:15.184Z,83.58
2023-01-12T06:52:16.657Z,83.55
2023-01-12T06:53:18.901Z,83.63
2023-01-12T06:54:22.274Z,83.83
2023-01-12T06:55:23.777Z,83.46
2023-01-12T06:56:25.469Z,83.54
2023-01-12T06:57:26.937Z,83.67
2023-01-12T06:58:28.432Z,83.14
2023-01-12T06:59:29.918Z,83.28
2023-01-12T07:00:32.519Z,83.83
2023-01-12T07:01:34.157Z,83.87
2023-01-12T07:02:35.898Z,83.55
2023-01-12T07:03:37.428Z,83.33
2023-01-12T07:04:41.252Z,83.37
2023-01-12T07:05:44.117Z,83.55
2023-01-12T07:06:46.893Z,84.25
2023-01-12T07:07:48.854Z,84.49
2023-01-12T07:08:50.984Z,84.11
2023-01-12T07:09:52.954Z,84.29
2023-01-12T07:10:55.641Z,84.37
2023-01-12T07:11:57.598Z,83.60
2023-01-12T07:13:02.402Z,83.52
2023-01-12T07:14:03.957Z,84.00
2023-01-12T07:15:06.889Z,84.04
2023-01-12T07:16:09.115Z,84.74
2023-01-12T07:17:12.742Z,84.64
2023-01-12T07:18:14.455Z,84.95
2023-01-12T07:19:16.400Z,85.07
2023-01-12T07:20:18.220Z,84.77
2023-01-12T07:21:20.310Z,85.17
2023-01-12T07:22:22.361Z,84.92
2023-01-12T07:23:24.440Z,84.50
2023-01-12T07:24:25.984Z,84.83
2023-01-12T07:25:28.051Z,84.59
2023-01-12T07:26:31.676Z,84.67
2023-01-12T07:27:33.199Z,84.89
2023-01-12T07:28:35.035Z,84.65
2023-01-12T07:29:36.711Z,85.02
2023-01-12T07:30:38.858Z,84.83
2023-01-12T07:31:40.872Z,84.70
2023-01-12T07:32:43.551Z,84.99
2023-01-12T07:33:44.997Z,85.22
2023-01-12T07:34:48.399Z,84.63
2023-01-12T07:35:50.057Z,84.74
2023-01-12T07:36:52.217Z,84.70
2023-01-12T07:37:54.210Z,84.91
2023-01-12T07:38:56.198Z,85.45
2023-01-12T07:39:59.155Z,85.31
2023-01-12T07:41:02.054Z,85.08
2023-01-12T07:42:22.420Z,85.25
2023-01-12T07:43:25.272Z,85.25
2023-01-12T07:44:27.320Z,85.19
2023-01-12T07:45:30.133Z,85.22
2023-01-12T07:46:31.707Z,85.15
2023-01-12T07:47:33.401Z,85.63
2023-01-12T07:48:35.785Z,85.53
2023-01-12T07:49:37.381Z,85.76
2023-01-12T07:50:38.833Z,86.10
2023-01-12T07:51:40.680Z,86.07
2023-01-12T07:52:42.337Z,85.88
2023-01-12T07:53:43.965Z,86.08
2023-01-12T07:54:45.519Z,86.46
2023-01-12T07:55:47.002Z,86.72
2023-01-12T07:56:48.598Z,86.66
2023-01-12T07:57:56.811Z,86.44
2023-01-12T07:58:58.435Z,86.53
2023-01-12T07:59:59.906Z,86.72
2023-01-12T08:01:02.718Z,86.43
2023-01-12T08:02:05.259Z,86.53
2023-01-12T08:03:13.764Z,86.35
2023-01-12T08:04:15.388Z,86.21
2023-01-12T08:05:17.290Z,86.02
2023-01-12T08:06:18.998Z,86.25
2023-01-12T08:07:20.689Z,86.54
2023-01-12T08:08:22.457Z,86.45
2023-01-12T08:09:24.298Z,86.54
2023-01-12T08:10:26.156Z,86.61
2023-01-12T08:11:27.853Z,86.72
2023-01-12T08:12:30.488Z,86.75
2023-01-12T08:13:32.626Z,86.50
2023-01-12T08:14:37.536Z,86.65
2023-01-12T08:15:46.527Z,86.07
2023-01-12T08:16:49.690Z,85.12
2023-01-12T08:17:54.913Z,84.61
2023-01-12T08:19:13.473Z,85.01
2023-01-12T08:20:19.981Z,85.28
2023-01-12T08:21:28.528Z,84.72
2023-01-12T08:22:38.453Z,84.35
2023-01-12T08:23:45.626Z,83.76
2023-01-12T08:24:56.368Z,83.73
2023-01-12T08:26:04.293Z,83.69
2023-01-12T08:27:09.375Z,83.53
2023-01-12T08:28:18.539Z,83.39
2023-01-12T08:29:32.054Z,83.21
2023-01-12T08:30:34.379Z,83.24
2023-01-12T08:31:37.556Z,83.57
2023-01-12T08:32:39.182Z,83.35
2023-01-12T08:33:41.802Z,83.50
2023-01-12T08:34:48.366Z,83.13
2023-01-12T08:35:50.037Z,83.20
2023-01-12T08:36:51.699Z,83.06
2023-01-12T08:37:55.170Z,82.84
2023-01-12T08:38:57.596Z,82.91
2023-01-12T08:39:59.586Z,82.96
2023-01-12T08:41:19.638Z,82.68
2023-01-12T08:42:26.383Z,82.39
2023-01-12T08:43:47.702Z,82.67
2023-01-12T08:44:50.389Z,82.97
2023-01-12T08:45:51.896Z,82.42
2023-01-12T08:46:54.425Z,81.93
2023-01-12T08:47:56.193Z,81.95
2023-01-12T08:48:58.496Z,81.68
2023-01-12T08:50:00.704Z,82.16
2023-01-12T08:51:02.668Z,81.63
2023-01-12T08:52:04.350Z,81.96
2023-01-12T08:53:06.411Z,81.15
2023-01-12T08:54:12.843Z,81.22
2023-01-12T08:55:14.579Z,81.82
2023-01-12T08:56:16.214Z,82.44
2023-01-12T08:57:19.423Z,81.46
2023-01-12T08:58:24.140Z,82.08
2023-01-12T08:59:25.977Z,81.49
2023-01-12T09:00:27.786Z,80.86
2023-01-12T09:01:30.059Z,81.25
2023-01-12T09:02:32.081Z,81.89
2023-01-12T09:03:34.495Z,81.85
2023-01-12T09:04:39.661Z,81.23
2023-01-12T09:05:41.348Z,80.85
2023-01-12T09:06:45.243Z,81.26
2023-01-12T09:07:46.893Z,81.60
2023-01-12T09:08:48.773Z,81.69
2023-01-12T09:09:50.834Z,81.22
2023-01-12T09:10:52.468Z,81.19
2023-01-12T09:11:54.139Z,81.13
2023-01-12T09:12:57.055Z,80.97
2023-01-12T09:13:58.837Z,80.54
2023-01-12T09:15:00.318Z,80.36
2023-01-12T09:16:14.451Z,80.58
2023-01-12T09:17:16.695Z,80.51
2023-01-12T09:18:19.764Z,80.98
2023-01-12T09:19:21.799Z,80.20
2023-01-12T09:20:23.515Z,80.40
2023-01-12T09:21:27.806Z,80.14
2023-01-12T09:22:30.154Z,80.06
2023-01-12T09:23:33.031Z,79.94
2023-01-12T09:24:35.150Z,80.57
2023-01-12T09:25:37.077Z,80.81
2023-01-12T09:26:42.358Z,80.43
2023-01-12T09:27:44.017Z,80.71
2023-01-12T09:28:46.916Z,81.20
2023-01-12T09:29:48.727Z,80.97
2023-01-12T09:30:50.340Z,81.00
2023-01-12T09:31:52.518Z,80.28
2023-01-12T09:32:56.612Z,81.09
2023-01-12T09:33:59.304Z,80.44
2023-01-12T09:35:01.005Z,80.35
2023-01-12T09:36:08.645Z,79.98
2023-01-12T09:37:10.860Z,80.60
2023-01-12T09:38:12.449Z,79.24
2023-01-12T09:39:26.854Z,80.55
2023-01-12T09:40:29.636Z,80.59
2023-01-12T09:41:56.003Z,81.15
2023-01-12T09:43:16.152Z,79.91
2023-01-12T09:44:53.455Z,79.11
2023-01-12T09:46:13.696Z,79.51
2023-01-12T09:47:19.530Z,79.87
2023-01-12T09:48:23.277Z,79.75
2023-01-12T09:49:31.556Z,80.07
2023-01-12T09:50:45.406Z,79.96
2023-01-12T09:52:01.581Z,79.53
2023-01-12T09:53:47.499Z,79.60
2023-01-12T09:54:53.369Z,79.25
2023-01-12T09:56:09.409Z,79.21
2023-01-12T09:57:36.935Z,80.16
2023-01-12T09:59:05.292Z,79.31
2023-01-12T10:00:13.114Z,79.03
2023-01-12T10:01:30.052Z,79.54
2023-01-12T10:02:40.162Z,79.28
2023-01-12T10:03:43.475Z,79.14
2023-01-12T10:04:50.703Z,78.96
2023-01-12T10:05:57.900Z,79.71
2023-01-12T10:06:59.689Z,79.49
2023-01-12T10:08:02.509Z,80.35
2023-01-12T10:09:09.845Z,79.94
2023-01-12T10:10:15.717Z,80.21
2023-01-12T10:11:58.275Z,79.85
2023-01-12T10:13:07.197Z,79.62
2023-01-12T10:14:34.100Z,79.46
2023-01-12T10:15:44.655Z,79.46
2023-01-12T10:17:18.510Z,80.51
2023-01-12T10:18:39.897Z,80.03
2023-01-12T10:19:59.171Z,79.79
2023-01-12T10:21:01.223Z,79.24
2023-01-12T10:22:16.237Z,79.70
2023-01-12T10:23:24.702Z,79.41
2023-01-12T10:24:26.535Z,80.04
2023-01-12T10:25:48.450Z,79.83
2023-01-12T10:26:59.700Z,80.04
2023-01-12T10:28:24.325Z,80.45
2023-01-12T10:29:26.462Z,80.01
2023-01-12T10:30:35.390Z,80.20
2023-01-12T10:31:37.509Z,79.83
2023-01-12T10:32:42.055Z,79.34
2023-01-12T10:34:11.833Z,79.25
2023-01-12T10:35:16.934Z,79.07
2023-01-12T10:36:20.003Z,79.18
2023-01-12T10:37:22.024Z,78.70
2023-01-12T10:38:31.171Z,79.25
2023-01-12T10:39:43.530Z,79.02
2023-01-12T10:41:23.005Z,78.35
2023-01-12T10:42:43.815Z,77.95
2023-01-12T10:44:07.677Z,78.43
2023-01-12T10:45:16.871Z,78.21
2023-01-12T10:46:22.376Z,78.86
2023-01-12T10:47:24.231Z,78.92
2023-01-12T10:48:26.806Z,78.67
2023-01-12T10:49:28.513Z,78.27
2023-01-12T10:50:32.963Z,78.89
2023-01-12T10:51:36.324Z,76.90
2023-01-12T10:52:41.218Z,77.90
2023-01-12T10:53:47.072Z,77.45
2023-01-12T10:54:49.676Z,77.20
2023-01-12T10:55:52.200Z,77.29
2023-01-12T10:57:02.934Z,77.08
2023-01-12T10:58:04.383Z,77.08
2023-01-12T10:59:12.031Z,77.65
2023-01-12T11:00:26.240Z,77.77
2023-01-12T11:01:44.511Z,77.33
2023-01-12T11:02:46.245Z,77.51
2023-01-12T11:03:47.825Z,77.08
2023-01-12T11:04:54.565Z,76.78
2023-01-12T11:05:56.236Z,76.44
2023-01-12T11:07:04.984Z,77.26
2023-01-12T11:08:23.471Z,76.73
2023-01-12T11:09:27.223Z,77.28
2023-01-12T11:10:32.019Z,77.47
2023-01-12T11:11:33.856Z,76.37
2023-01-12T11:12:40.696Z,76.61
2023-01-12T11:13:42.274Z,75.97
2023-01-12T11:14:57.990Z,76.41
2023-01-12T11:16:16.840Z,76.63
2023-01-12T11:17:33.729Z,76.89
2023-01-12T11:18:54.026Z,76.39
2023-01-12T11:20:01.737Z,76.14
2023-01-12T11:21:10.778Z,75.43
2023-01-12T11:22:29.014Z,75.23
2023-01-12T11:23:46.725Z,75.02
2023-01-12T11:25:25.402Z,75.55
2023-01-12T11:26:46.185Z,75.95
2023-01-12T11:28:04.285Z,76.45
2023-01-12T11:29:50.551Z,75.62
2023-01-12T11:31:08.911Z,75.40
2023-01-12T11:32:20.455Z,75.84
2023-01-12T11:33:48.538Z,75.53
2023-01-12T11:35:04.922Z,74.58
2023-01-12T11:36:11.801Z,74.57
2023-01-12T11:37:14.969Z,75.52
2023-01-12T11:38:45.885Z,74.90
2023-01-12T11:39:53.878Z,74.66
2023-01-12T11:40:58.642Z,74.36
2023-01-12T11:42:20.665Z,74.22
2023-01-12T11:43:49.732Z,74.02
2023-01-12T11:45:17.333Z,74.03
2023-01-12T11:46:51.957Z,73.63
2023-01-12T11:48:04.393Z,74.01
2023-01-12T11:49:23.577Z,73.75
2023-01-12T11:50:35.571Z,74.23
2023-01-12T11:51:37.629Z,74.22
2023-01-12T11:52:40.380Z,73.82
2023-01-12T11:53:42.804Z,73.70
2023-01-12T11:54:44.625Z,73.75
2023-01-12T11:56:01.582Z,74.09
2023-01-12T11:57:31.416Z,74.39
2023-01-12T11:59:02.468Z,74.45
2023-01-12T12:00:26.681Z,73.70
2023-01-12T12:01:39.463Z,73.86
2023-01-12T12:03:26.246Z,73.70
2023-01-12T12:04:38.406Z,73.42
2023-01-12T12:05:56.632Z,73.39
2023-01-12T12:07:14.271Z,72.57
2023-01-12T12:08:35.900Z,72.51
2023-01-12T12:10:00.106Z,73.86
2023-01-12T12:11:34.637Z,74.19
2023-01-12T12:12:47.035Z,73.89
2023-01-12T12:14:16.758Z,73.64
2023-01-12T12:16:08.139Z,74.47
2023-01-12T12:17:15.179Z,73.38
2023-01-12T12:18:35.069Z,74.45
2023-01-12T12:19:51.757Z,74.60
2023-01-12T12:21:20.413Z,75.24
2023-01-12T12:22:59.745Z,75.20
2023-01-12T12:24:15.855Z,75.52
2023-01-12T12:25:41.728Z,75.27
2023-01-12T12:26:49.565Z,75.27
2023-01-12T12:28:18.519Z,75.74
2023-01-12T12:30:04.587Z,75.40
2023-01-12T12:31:45.553Z,76.04
2023-01-12T12:33:15.430Z,76.07
2023-01-12T12:34:49.469Z,76.21
2023-01-12T12:36:13.486Z,75.69
2023-01-12T12:37:18.888Z,76.39
2023-01-12T12:38:38.204Z,76.39
2023-01-12T12:39:42.833Z,75.58
2023-01-12T12:41:11.923Z,76.08
2023-01-12T12:42:57.042Z,76.29
2023-01-12T12:45:09.978Z,76.51
2023-01-12T12:46:11.705Z,76.03
2023-01-12T12:47:52.950Z,76.54
2023-01-12T12:48:58.112Z,76.72
2023-01-12T12:50:02.793Z,77.49
2023-01-12T12:51:08.042Z,77.52
2023-01-12T12:52:13.125Z,78.31
2023-01-12T12:53:17.339Z,78.15
2023-01-12T12:54:21.851Z,78.31
2023-01-12T12:55:23.731Z,77.85
2023-01-12T12:56:28.283Z,78.02
2023-01-12T12:57:29.795Z,77.16
2023-01-12T12:58:51.368Z,77.53
2023-01-12T12:59:57.045Z,77.79
2023-01-12T13:01:24.842Z,78.04
2023-01-12T13:02:34.732Z,77.97
2023-01-12T13:03:42.501Z,78.14
2023-01-12T13:04:43.930Z,77.71
2023-01-12T13:05:48.720Z,77.06
2023-01-12T13:06:50.556Z,78.14
2023-01-12T13:07:53.311Z,77.77
2023-01-12T13:09:01.155Z,78.11
2023-01-12T13:10:26.446Z,77.42
2023-01-12T13:11:46.971Z,77.59
2023-01-12T13:13:02.872Z,77.45
2023-01-12T13:14:26.856Z,77.98
2023-01-12T13:15:32.491Z,77.85
2023-01-12T13:16:34.321Z,77.73
2023-01-12T13:17:44.892Z,77.41
2023-01-12T13:18:52.809Z,78.13
2023-01-12T13:20:08.273Z,78.34
2023-01-12T13:21:27.321Z,78.39
2023-01-12T13:22:32.159Z,78.67
2023-01-12T13:24:08.728Z,77.09
2023-01-12T13:25:10.239Z,77.54
2023-01-12T13:26:39.587Z,77.12
2023-01-12T13:27:56.974Z,77.69
2023-01-12T13:29:23.676Z,77.51
2023-01-12T13:30:28.511Z,77.69
2023-01-12T13:31:32.878Z,78.29
2023-01-12T13:32:41.249Z,77.94
2023-01-12T13:33:44.211Z,78.84
2023-01-12T13:34:46.630Z,78.52
2023-01-12T13:35:51.099Z,77.97
2023-01-12T13:37:20.831Z,77.22
2023-01-12T13:38:34.258Z,77.77
2023-01-12T13:39:48.827Z,77.56
2023-01-12T13:40:55.581Z,77.48
2023-01-12T13:42:16.306Z,77.42
2023-01-12T13:43:28.699Z,76.93
2023-01-12T13:44:36.649Z,77.10
2023-01-12T13:45:39.630Z,77.44
2023-01-12T13:46:46.355Z,77.52
2023-01-12T13:47:52.576Z,77.13
2023-01-12T13:48:55.994Z,76.67
2023-01-12T13:50:01.569Z,76.84
2023-01-12T13:51:12.477Z,76.66
2023-01-12T13:52:28.899Z,77.06
2023-01-12T13:53:32.044Z,76.36
2023-01-12T13:54:34.478Z,75.76
2023-01-12T13:55:39.651Z,75.81
2023-01-12T13:56:43.007Z,75.20
2023-01-12T13:58:07.036Z,75.48
2023-01-12T13:59:17.901Z,76.04
2023-01-12T14:00:22.267Z,76.12
2023-01-12T14:01:32.514Z,75.52
2023-01-12T14:02:36.709Z,76.49
2023-01-12T14:04:02.228Z,76.66
2023-01-12T14:05:03.941Z,77.11
2023-01-12T14:06:43.610Z,76.55
2023-01-12T14:08:12.834Z,77.18
2023-01-12T14:09:23.658Z,76.52
2023-01-12T14:10:25.241Z,76.65
2023-01-12T14:11:38.648Z,77.25
2023-01-12T14:13:01.911Z,76.47
2023-01-12T14:14:51.935Z,76.64
2023-01-12T14:16:20.894Z,75.03
2023-01-12T14:17:47.101Z,75.20
2023-01-12T14:18:50.265Z,75.80
2023-01-12T14:19:52.001Z,75.99
2023-01-12T14:20:59.051Z,75.81
2023-01-12T14:22:03.521Z,75.99
2023-01-12T14:23:16.515Z,75.86
2023-01-12T14:24:25.244Z,75.33
2023-01-12T14:25:26.793Z,75.68
2023-01-12T14:26:28.514Z,75.51
2023-01-12T14:27:30.071Z,76.60
2023-01-12T14:28:32.672Z,76.75
2023-01-12T14:29:34.872Z,77.07
2023-01-12T14:30:46.840Z,76.34
2023-01-12T14:31:52.375Z,76.97
2023-01-12T14:32:55.253Z,76.72
2023-01-12T14:34:00.710Z,77.20
2023-01-12T14:35:02.307Z,77.38
2023-01-12T14:36:13.195Z,77.28
2023-01-12T14:37:29.696Z,77.68
2023-01-12T14:38:36.208Z,77.25